Time;durP1;ratioP1;P1;durP2;ratioP2;P2;SDS_P1;SDS_P2;PMS_P1;PMS_P2;Temp;Humidity;BMP_temperature;BMP_pressure;BME280_temperature;BME280_humidity;BME280_pressure;Samples;Min_cycle;Max_cycle;Signal;HPM_P1;HPM_P2
2022/12/22 03:26:38;;;;;;;;;;;;;;;7.03;81.77;100448.84;5053211;28;19979;-62
2022/12/22 03:29:03;;;;;;;;;;;;;;;7.04;81.78;100439.19;5052940;28;19921;-66
2022/12/22 03:31:29;;;;;;;;;;;;;;;7.03;81.65;100437.53;5049238;28;20661;-65
2022/12/22 03:33:54;;;;;;;;;;;;;;;7.05;81.94;100440.91;5057863;28;20384;-67
2022/12/22 03:36:19;;;;;;;;;;;;;;;7.05;81.80;100433.91;5056413;28;19921;-68
2022/12/22 03:38:45;;;;;;;;;;;;;;;7.06;81.83;100432.13;5049218;28;19921;-67
2022/12/22 03:46:28;;;;;;;;;;;;;;;7.06;81.64;100433.00;5056386;28;20338;-65
2022/12/22 03:46:39;;;;;;;;;;;;;;;7.08;81.40;100431.16;5056104;28;20406;-65
2022/12/22 03:49:10;;;;;;;;;;;;;;;7.12;81.68;100434.47;5058903;28;19920;-66
2022/12/22 03:51:37;;;;;;;;;;;;;;;7.11;81.35;100435.38;5035584;28;20020;-67
2022/12/22 03:54:02;;;;;;;;;;;;;;;7.13;81.52;100436.16;5031755;28;19921;-66
2022/12/22 03:56:28;;;;;;;;;;;;;;;7.12;81.25;100442.31;5047266;28;19925;-66
2022/12/22 03:58:53;;;;;;;;;;;;;;;7.09;81.39;100439.84;5048589;28;20402;-65
2022/12/22 04:01:18;;;;;;;;;;;;;;;7.08;81.22;100430.28;5052385;28;19921;-65
2022/12/22 04:03:44;;;;;;;;;;;;;;;7.07;81.26;100433.81;5056160;28;20391;-66
2022/12/22 04:06:09;;;;;;;;;;;;;;;7.07;81.29;100423.38;5047486;28;19928;-67
2022/12/22 04:08:34;;;;;;;;;;;;;;;7.07;81.21;100423.38;5058969;28;19963;-64
2022/12/22 04:13:44;;;;;;;;;;;;;;;7.07;81.53;100412.91;5051179;28;19939;-65
2022/12/22 04:16:09;;;;;;;;;;;;;;;7.09;81.30;100417.16;5048281;28;19991;-67
2022/12/22 04:18:34;;;;;;;;;;;;;;;7.11;81.11;100411.84;5028994;28;19936;-65
2022/12/22 04:20:59;;;;;;;;;;;;;;;7.11;81.31;100406.59;5055811;28;19922;-65
2022/12/22 04:23:25;;;;;;;;;;;;;;;7.14;81.26;100401.22;5056445;28;20019;-65
2022/12/22 04:25:50;;;;;;;;;;;;;;;7.16;81.12;100402.84;5050670;28;19924;-65
2022/12/22 04:28:15;;;;;;;;;;;;;;;7.20;81.27;100397.47;5050962;28;19964;-65
2022/12/22 04:30:41;;;;;;;;;;;;;;;7.23;80.99;100398.16;5043307;28;19922;-66
2022/12/22 04:33:06;;;;;;;;;;;;;;;7.23;80.63;100398.16;5047066;28;19928;-65
2022/12/22 04:35:31;;;;;;;;;;;;;;;7.23;80.64;100398.16;5029062;28;19936;-66
2022/12/22 04:37:57;;;;;;;;;;;;;;;7.20;80.79;100403.53;5050297;28;19917;-65
2022/12/22 04:40:22;;;;;;;;;;;;;;;7.18;80.67;100405.41;5047114;28;19925;-67
2022/12/22 04:42:47;;;;;;;;;;;;;;;7.17;80.69;100417.63;5047625;28;20037;-67
2022/12/22 04:45:13;;;;;;;;;;;;;;;7.17;80.89;100409.75;5016300;28;19966;-64
2022/12/22 04:47:38;;;;;;;;;;;;;;;7.16;80.87;100408.06;5048302;28;20307;-66
2022/12/22 04:50:04;;;;;;;;;;;;;;;7.20;80.85;100403.53;5054149;28;19917;-64
2022/12/22 04:52:29;;;;;;;;;;;;;;;7.21;80.78;100399.16;5047779;28;19921;-65
2022/12/22 04:54:54;;;;;;;;;;;;;;;7.19;80.68;100396.59;5047018;28;19928;-67
2022/12/22 04:57:20;;;;;;;;;;;;;;;7.15;80.97;100389.84;5048276;28;19921;-66
2022/12/22 04:59:45;;;;;;;;;;;;;;;7.09;80.73;100385.75;5032592;28;20368;-65
2022/12/22 05:02:11;;;;;;;;;;;;;;;7.05;80.92;100393.81;5043566;28;19924;-65
2022/12/22 05:04:36;;;;;;;;;;;;;;;6.97;80.94;100389.81;5044210;28;19921;-65
2022/12/22 05:07:01;;;;;;;;;;;;;;;6.93;80.72;100377.78;5048565;28;19966;-64
2022/12/22 05:09:27;;;;;;;;;;;;;;;6.94;81.21;100381.28;5037305;28;19921;-66
2022/12/22 05:11:52;;;;;;;;;;;;;;;6.93;80.90;100377.78;5038150;28;21868;-65
2022/12/22 05:14:17;;;;;;;;;;;;;;;6.89;80.86;100373.63;5059370;28;20856;-65
2022/12/22 05:16:42;;;;;;;;;;;;;;;6.87;81.07;100378.09;5050096;28;19928;-66
2022/12/22 05:19:08;;;;;;;;;;;;;;;6.85;80.91;100372.94;5024774;28;20315;-65
2022/12/22 05:21:33;;;;;;;;;;;;;;;6.84;81.17;100354.72;5044226;28;20379;-67
2022/12/22 05:23:58;;;;;;;;;;;;;;;6.83;81.30;100358.25;5046762;28;20295;-65
2022/12/22 05:26:24;;;;;;;;;;;;;;;6.79;81.26;100362.78;5048798;28;20323;-67
2022/12/22 05:28:49;;;;;;;;;;;;;;;6.77;80.99;100354.16;5044500;28;19925;-65
2022/12/22 05:31:19;;;;;;;;;;;;;;;6.77;81.30;100355.91;5043099;28;19936;-63
2022/12/22 05:33:45;;;;;;;;;;;;;;;6.76;81.31;100354.22;5045973;28;20016;-67
2022/12/22 05:36:10;;;;;;;;;;;;;;;6.80;81.21;100342.69;5045862;28;20390;-65
2022/12/22 05:38:36;;;;;;;;;;;;;;;6.83;81.12;100343.38;5047530;28;20394;-67
2022/12/22 05:41:01;;;;;;;;;;;;;;;6.83;80.96;100342.56;5052771;28;19936;-67
2022/12/22 05:43:27;;;;;;;;;;;;;;;6.85;80.73;100340.72;5051675;28;19920;-66
2022/12/22 05:45:52;;;;;;;;;;;;;;;6.84;80.57;100339.84;5039592;28;19925;-65
2022/12/22 05:48:18;;;;;;;;;;;;;;;6.85;80.85;100331.09;5041717;28;19946;-63
2022/12/22 05:50:43;;;;;;;;;;;;;;;6.86;80.62;100331.94;5048366;28;20562;-64
2022/12/22 05:53:09;;;;;;;;;;;;;;;6.86;80.56;100331.94;5051948;28;19925;-66
2022/12/22 05:55:34;;;;;;;;;;;;;;;6.85;80.57;100335.47;5043415;28;19976;-67
2022/12/22 05:58:00;;;;;;;;;;;;;;;6.84;80.74;100331.16;5045474;28;20017;-66
2022/12/22 06:00:26;;;;;;;;;;;;;;;6.81;80.58;100320.84;5051702;28;19939;-65
2022/12/22 06:02:52;;;;;;;;;;;;;;;6.79;80.62;100314.84;5042556;28;20375;-64
2022/12/22 06:05:17;;;;;;;;;;;;;;;6.79;80.74;100314.84;5046405;28;20388;-65
2022/12/22 06:07:42;;;;;;;;;;;;;;;6.77;80.82;100316.69;5048700;28;19920;-68
2022/12/22 06:10:08;;;;;;;;;;;;;;;6.76;80.69;100305.41;5046266;28;19942;-68
2022/12/22 06:12:33;;;;;;;;;;;;;;;6.75;80.81;100300.22;5047801;28;20007;-67
2022/12/22 06:14:59;;;;;;;;;;;;;;;6.76;80.97;100305.41;5048139;28;19972;-65
2022/12/22 06:17:24;;;;;;;;;;;;;;;6.75;80.84;100302.84;5050715;28;19931;-68
2022/12/22 06:19:49;;;;;;;;;;;;;;;6.75;80.70;100306.31;5047482;28;19929;-67
2022/12/22 06:22:15;;;;;;;;;;;;;;;6.78;80.78;100297.47;5050188;28;19917;-65
2022/12/22 06:24:40;;;;;;;;;;;;;;;6.78;80.45;100287.00;5050222;28;19920;-68
2022/12/22 06:27:05;;;;;;;;;;;;;;;6.80;80.72;100291.25;5049979;28;19949;-67
2022/12/22 06:29:30;;;;;;;;;;;;;;;6.83;80.99;100290.25;5043960;28;20027;-68
2022/12/22 06:31:56;;;;;;;;;;;;;;;6.87;80.64;100291.78;5047077;28;20074;-68
2022/12/22 06:34:21;;;;;;;;;;;;;;;6.87;80.67;100276.09;5053835;28;19924;-65
2022/12/22 06:36:47;;;;;;;;;;;;;;;6.90;80.63;100280.31;5045814;28;19925;-67
2022/12/22 06:39:13;;;;;;;;;;;;;;;6.92;80.62;100279.31;5050804;28;19912;-68
2022/12/22 06:44:22;;;;;;;;;;;;;;;6.97;80.33;100263.38;5047845;28;19966;-64
2022/12/22 06:46:47;;;;;;;;;;;;;;;7.01;80.38;100268.41;5042385;28;20372;-64
2022/12/22 06:49:12;;;;;;;;;;;;;;;6.99;80.11;100259.78;5049864;28;19928;-65
2022/12/22 06:51:38;;;;;;;;;;;;;;;6.98;80.53;100257.22;5017153;28;19925;-69
2022/12/22 06:54:03;;;;;;;;;;;;;;;7.00;80.46;100248.41;5039618;28;20023;-61
2022/12/22 06:56:28;;;;;;;;;;;;;;;7.01;80.40;100252.72;5043160;28;20289;-67
2022/12/22 06:58:54;;;;;;;;;;;;;;;7.04;80.39;100245.59;5054620;28;19917;-66
2022/12/22 07:01:19;;;;;;;;;;;;;;;7.04;80.29;100246.47;5043841;28;19929;-67
2022/12/22 07:03:44;;;;;;;;;;;;;;;7.07;80.22;100251.56;5052171;28;19921;-63
2022/12/22 07:06:10;;;;;;;;;;;;;;;7.08;80.61;100252.38;5038514;28;19921;-68
2022/12/22 07:08:36;;;;;;;;;;;;;;;7.09;80.34;100246.22;5051189;28;19984;-67
2022/12/22 07:11:01;;;;;;;;;;;;;;;7.12;80.59;100238.22;5045545;28;19924;-70
2022/12/22 07:13:32;;;;;;;;;;;;;;;7.12;80.73;100239.06;5039668;28;19920;-67
2022/12/22 07:15:58;;;;;;;;;;;;;;;7.10;80.49;100242.69;5038881;28;19925;-62
2022/12/22 07:18:23;;;;;;;;;;;;;;;7.09;80.53;100239.25;5044218;28;19963;-63
2022/12/22 07:20:48;;;;;;;;;;;;;;;7.08;80.83;100241.91;5024643;28;19929;-67
2022/12/22 07:23:14;;;;;;;;;;;;;;;7.06;80.96;100233.28;5034626;28;19932;-65
2022/12/22 07:25:39;;;;;;;;;;;;;;;7.04;81.13;100235.13;5043533;28;19974;-65
2022/12/22 07:28:05;;;;;;;;;;;;;;;7.05;81.05;100229.00;5047633;28;20040;-63
2022/12/22 07:30:30;;;;;;;;;;;;;;;7.05;80.80;100229.00;5046389;28;19921;-64
2022/12/22 07:32:56;;;;;;;;;;;;;;;7.07;81.06;100229.75;5051628;28;19982;-62
2022/12/22 07:35:21;;;;;;;;;;;;;;;7.10;80.91;100232.22;5039447;28;20146;-67
2022/12/22 07:37:47;;;;;;;;;;;;;;;7.15;80.93;100227.59;5034966;28;19932;-62
2022/12/22 07:40:12;;;;;;;;;;;;;;;7.17;80.70;100228.38;5055473;28;19924;-69
2022/12/22 07:42:44;;;;;;;;;;;;;;;7.20;80.53;100225.59;5038480;28;19935;-69
2022/12/22 07:45:13;;;;;;;;;;;;;;;7.20;80.67;100230.81;5041679;28;20851;-70
2022/12/22 07:47:38;;;;;;;;;;;;;;;7.22;80.70;100228.13;5021076;28;19929;-65
2022/12/22 07:52:48;;;;;;;;;;;;;;;7.18;81.15;100222.22;5050058;28;19978;-67
2022/12/22 07:55:13;;;;;;;;;;;;;;;7.21;81.24;100205.50;5052527;28;19932;-63
2022/12/22 07:57:39;;;;;;;;;;;;;;;7.25;81.19;100213.09;5051740;28;19928;-64
2022/12/22 08:00:05;;;;;;;;;;;;;;;7.31;81.07;100207.56;5054216;28;20383;-63
2022/12/22 08:02:30;;;;;;;;;;;;;;;7.34;80.72;100206.56;5048559;28;19924;-64
2022/12/22 08:04:56;;;;;;;;;;;;;;;7.38;80.49;100196.75;5058933;28;19917;-63
2022/12/22 08:07:21;;;;;;;;;;;;;;;7.39;80.56;100206.31;5057947;28;20015;-63
2022/12/22 08:09:46;;;;;;;;;;;;;;;7.39;80.63;100208.91;5049094;28;19935;-66
2022/12/22 08:12:11;;;;;;;;;;;;;;;7.37;80.57;100198.53;5046300;28;19925;-64
2022/12/22 08:14:37;;;;;;;;;;;;;;;7.34;80.89;100198.69;5039003;28;19936;-64
2022/12/22 08:17:02;;;;;;;;;;;;;;;7.32;80.96;100204.03;5046791;28;19921;-65
2022/12/22 08:19:27;;;;;;;;;;;;;;;7.32;80.96;100193.56;5056489;28;19948;-65
2022/12/22 08:21:53;;;;;;;;;;;;;;;7.33;81.25;100191.78;5058204;28;20003;-66
2022/12/22 08:24:18;;;;;;;;;;;;;;;7.31;81.27;100181.41;5058713;28;19917;-63
2022/12/22 08:26:45;;;;;;;;;;;;;;;7.32;81.21;100177.84;5053344;28;19939;-64
2022/12/22 08:29:17;;;;;;;;;;;;;;;7.35;81.22;100175.97;5050577;28;19917;-64
2022/12/22 08:31:42;;;;;;;;;;;;;;;7.39;81.23;100172.28;5049370;28;19932;-63
2022/12/22 08:34:09;;;;;;;;;;;;;;;7.43;81.26;100174.63;5038138;28;19943;-64
2022/12/22 08:36:37;;;;;;;;;;;;;;;7.48;81.17;100172.63;5051023;28;19924;-63
2022/12/22 08:39:03;;;;;;;;;;;;;;;7.51;80.91;100171.59;5045878;28;19929;-66
2022/12/22 08:44:13;;;;;;;;;;;;;;;7.53;81.04;100174.16;5049794;28;19983;-63
2022/12/22 08:46:38;;;;;;;;;;;;;;;7.52;80.86;100175.09;5048304;28;19917;-63
2022/12/22 08:49:03;;;;;;;;;;;;;;;7.54;80.69;100168.81;5042867;28;21184;-67
2022/12/22 08:51:28;;;;;;;;;;;;;;;7.55;80.89;100160.03;5032371;28;19932;-66
2022/12/22 08:53:54;;;;;;;;;;;;;;;7.59;80.78;100164.19;5047661;28;19967;-64
2022/12/22 08:56:19;;;;;;;;;;;;;;;7.61;80.78;100159.72;5038086;28;20414;-63
2022/12/22 08:58:44;;;;;;;;;;;;;;;7.61;80.60;100162.34;5050045;28;20389;-64
2022/12/22 09:01:17;;;;;;;;;;;;;;;7.60;80.58;100159.78;5048622;28;20016;-66
2022/12/22 09:03:46;;;;;;;;;;;;;;;7.62;80.60;100157.94;5031754;28;20003;-69
2022/12/22 09:06:11;;;;;;;;;;;;;;;7.61;80.86;100151.00;5049682;28;19931;-63
2022/12/22 09:08:37;;;;;;;;;;;;;;;7.64;80.74;100150.84;5043544;28;19925;-68
2022/12/22 09:11:03;;;;;;;;;;;;;;;7.62;80.80;100152.69;5052181;28;19924;-65
2022/12/22 09:13:28;;;;;;;;;;;;;;;7.62;80.85;100150.94;5048940;28;19917;-65
2022/12/22 09:15:53;;;;;;;;;;;;;;;7.66;80.59;100140.28;5049529;28;19924;-62
2022/12/22 09:18:19;;;;;;;;;;;;;;;7.65;80.85;100149.91;5046832;28;20290;-64
2022/12/22 09:20:44;;;;;;;;;;;;;;;7.67;80.56;100145.44;5057229;28;19917;-63
2022/12/22 09:23:09;;;;;;;;;;;;;;;7.66;80.60;100153.38;5040591;28;19929;-62
2022/12/22 09:25:34;;;;;;;;;;;;;;;7.68;80.56;100141.91;5038949;28;19982;-66
2022/12/22 09:28:00;;;;;;;;;;;;;;;7.70;80.54;100133.94;5037017;28;19920;-63
2022/12/22 09:30:25;;;;;;;;;;;;;;;7.70;80.75;100137.44;5046719;28;19921;-64
2022/12/22 09:32:50;;;;;;;;;;;;;;;7.72;80.60;100132.09;5045663;28;19970;-63
2022/12/22 09:35:16;;;;;;;;;;;;;;;7.69;80.50;100122.66;5042550;28;20307;-64
2022/12/22 09:37:41;;;;;;;;;;;;;;;7.70;80.52;100133.94;5028857;28;19978;-65
2022/12/22 09:40:07;;;;;;;;;;;;;;;7.71;80.41;100125.16;5042651;28;19931;-62
2022/12/22 09:42:33;;;;;;;;;;;;;;;7.72;80.40;100132.91;5040981;28;19973;-69
2022/12/22 09:44:59;;;;;;;;;;;;;;;7.72;80.51;100132.09;5034525;28;20578;-62
2022/12/22 09:47:34;;;;;;;;;;;;;;;7.72;80.52;100130.31;5046773;28;19990;-66
2022/12/22 09:50:01;;;;;;;;;;;;;;;7.75;80.63;100129.31;5049156;28;20010;-64
2022/12/22 09:52:41;;;;;;;;;;;;;;;7.75;80.36;100129.31;5041345;28;19978;-65
2022/12/22 09:55:19;;;;;;;;;;;;;;;7.75;80.47;100131.94;5044505;28;19924;-66
2022/12/22 09:57:44;;;;;;;;;;;;;;;7.77;80.33;100130.06;5029243;28;19916;-63
2022/12/22 10:00:14;;;;;;;;;;;;;;;7.78;80.10;100116.88;5027747;28;19932;-66
2022/12/22 10:02:45;;;;;;;;;;;;;;;7.77;80.37;100114.34;5040868;28;19975;-67
2022/12/22 10:05:11;;;;;;;;;;;;;;;7.76;80.36;100115.28;5031021;28;21749;-64
2022/12/22 10:07:41;;;;;;;;;;;;;;;7.76;80.31;100107.44;5040577;28;19916;-65
2022/12/22 10:10:15;;;;;;;;;;;;;;;7.76;80.69;100105.63;5053035;28;19924;-68
2022/12/22 10:12:41;;;;;;;;;;;;;;;7.78;80.18;100108.19;5050827;28;19967;-66
2022/12/22 10:15:09;;;;;;;;;;;;;;;7.78;80.26;100103.78;5058177;28;19982;-68
2022/12/22 10:17:34;;;;;;;;;;;;;;;7.81;80.33;100096.69;5033199;28;20011;-66
2022/12/22 10:20:20;;;;;;;;;;;;;;;7.78;80.36;100095.94;5030003;28;20027;-63
2022/12/22 10:22:46;;;;;;;;;;;;;;;7.83;80.50;100086.97;5045382;28;20411;-68
2022/12/22 10:25:24;;;;;;;;;;;;;;;7.84;80.45;100092.13;5036789;28;19951;-64
2022/12/22 10:27:49;;;;;;;;;;;;;;;7.90;80.35;100086.53;5045116;28;19943;-68
2022/12/22 10:30:20;;;;;;;;;;;;;;;7.92;80.53;100082.06;5054180;28;20356;-67
2022/12/22 10:33:04;;;;;;;;;;;;;;;8.01;80.32;100082.44;5050372;28;19921;-63
2022/12/22 10:35:48;;;;;;;;;;;;;;;8.05;80.33;100076.09;5031521;28;19960;-65
2022/12/22 10:38:16;;;;;;;;;;;;;;;8.11;80.30;100074.91;5031747;28;19917;-65
2022/12/22 10:40:43;;;;;;;;;;;;;;;8.13;80.10;100067.81;5028672;28;19924;-65
2022/12/22 10:43:09;;;;;;;;;;;;;;;8.16;80.23;100073.69;5026275;28;19925;-66
2022/12/22 10:45:34;;;;;;;;;;;;;;;8.17;80.03;100070.16;5035304;28;20277;-64
2022/12/22 10:47:59;;;;;;;;;;;;;;;8.17;80.13;100078.00;5081354;22;19935;-61
2022/12/22 10:50:25;;;;;;;;;;;;;;;8.21;80.19;100076.03;5063816;28;19940;-63
2022/12/22 10:52:56;;;;;;;;;;;;;;;8.23;79.98;100068.94;5057975;28;19928;-58
2022/12/22 10:55:27;;;;;;;;;;;;;;;8.26;79.74;100066.16;5062427;28;19920;-60
2022/12/22 10:58:12;;;;;;;;;;;;;;;8.28;79.75;100068.66;5059940;28;19966;-58
2022/12/22 11:00:37;;;;;;;;;;;;;;;8.29;79.80;100063.34;5062312;28;20579;-63
2022/12/22 11:03:04;;;;;;;;;;;;;;;8.31;79.79;100050.13;5060462;28;19991;-58
2022/12/22 11:05:30;;;;;;;;;;;;;;;8.31;79.80;100055.38;5061056;28;19927;-60
2022/12/22 11:07:56;;;;;;;;;;;;;;;8.29;79.53;100046.75;5065197;28;19959;-62
2022/12/22 11:10:40;;;;;;;;;;;;;;;8.25;79.81;100040.88;5064896;28;19948;-61
2022/12/22 11:13:26;;;;;;;;;;;;;;;8.22;80.12;100044.53;5062833;28;20003;-59
2022/12/22 11:16:10;;;;;;;;;;;;;;;8.22;80.15;100047.16;5054362;28;20007;-61
2022/12/22 11:18:45;;;;;;;;;;;;;;;8.23;80.12;100043.59;5049549;28;20299;-64
2022/12/22 11:21:13;;;;;;;;;;;;;;;8.24;80.16;100034.75;5065748;28;19995;-61
2022/12/22 11:23:52;;;;;;;;;;;;;;;8.26;80.23;100031.22;5066097;28;19916;-61
2022/12/22 11:26:36;;;;;;;;;;;;;;;8.25;80.17;100030.38;5073755;28;19966;-61
2022/12/22 11:29:24;;;;;;;;;;;;;;;8.28;80.08;100031.97;5072348;28;19917;-58
2022/12/22 11:31:50;;;;;;;;;;;;;;;8.28;80.25;100030.22;5042789;28;19917;-59
2022/12/22 11:34:30;;;;;;;;;;;;;;;8.26;80.14;100031.22;5067850;28;20398;-59
2022/12/22 11:37:14;;;;;;;;;;;;;;;8.29;80.28;100031.03;5061993;28;19924;-59
2022/12/22 11:39:44;;;;;;;;;;;;;;;8.32;80.37;100020.38;5062386;28;19943;-64
2022/12/22 11:42:28;;;;;;;;;;;;;;;8.32;80.06;100023.00;5047946;28;19925;-60
2022/12/22 11:45:12;;;;;;;;;;;;;;;8.34;79.79;100018.50;5068187;28;20348;-58
2022/12/22 11:47:45;;;;;;;;;;;;;;;8.32;79.98;100015.97;5065864;28;19924;-58
2022/12/22 11:50:29;;;;;;;;;;;;;;;8.30;80.02;100011.75;5073029;28;19999;-59
2022/12/22 11:52:57;;;;;;;;;;;;;;;8.28;80.14;100011.84;5059827;28;20002;-63
2022/12/22 11:55:33;;;;;;;;;;;;;;;8.29;80.21;100010.94;5047592;28;19928;-60
2022/12/22 11:58:10;;;;;;;;;;;;;;;8.31;80.21;100002.97;5066095;28;19916;-61
2022/12/22 12:00:41;;;;;;;;;;;;;;;8.30;80.23;99998.66;5062057;28;19932;-58
2022/12/22 12:03:33;;;;;;;;;;;;;;;8.32;80.13;100005.47;5050266;28;20295;-58
2022/12/22 12:05:58;;;;;;;;;;;;;;;8.33;80.13;99995.84;5055968;28;20023;-61
2022/12/22 12:08:28;;;;;;;;;;;;;;;8.35;80.10;99996.59;5068434;28;19995;-61
2022/12/22 12:11:10;;;;;;;;;;;;;;;8.36;80.21;99990.44;5067815;28;19924;-61
2022/12/22 12:13:35;;;;;;;;;;;;;;;8.38;80.09;99989.38;5069557;28;20311;-62
2022/12/22 12:16:12;;;;;;;;;;;;;;;8.38;80.08;99989.38;5068145;28;20380;-58
2022/12/22 12:18:40;;;;;;;;;;;;;;;8.42;80.27;99989.22;5066105;28;19920;-58
2022/12/22 12:21:22;;;;;;;;;;;;;;;8.40;80.15;99989.28;5061895;28;19924;-59
2022/12/22 12:23:54;;;;;;;;;;;;;;;8.37;80.30;99981.63;5057631;28;20672;-57
2022/12/22 12:26:39;;;;;;;;;;;;;;;8.37;80.33;99990.31;5062994;28;19917;-63
2022/12/22 12:29:23;;;;;;;;;;;;;;;8.37;80.51;99986.88;5069821;28;19943;-60
2022/12/22 12:31:54;;;;;;;;;;;;;;;8.36;80.46;99991.25;5070092;28;20512;-59
2022/12/22 12:34:20;;;;;;;;;;;;;;;8.37;80.61;99984.25;5048855;28;19928;-61
2022/12/22 12:36:50;;;;;;;;;;;;;;;8.37;80.63;99986.88;5066847;28;19917;-60
2022/12/22 12:39:26;;;;;;;;;;;;;;;8.38;80.55;99985.94;5073791;28;20014;-61
2022/12/22 12:41:55;;;;;;;;;;;;;;;8.40;80.71;99981.41;5068304;28;19939;-60
2022/12/22 12:44:26;;;;;;;;;;;;;;;8.43;80.51;99980.41;5065731;28;19916;-62
2022/12/22 12:46:55;;;;;;;;;;;;;;;8.44;80.65;99977.69;5061209;28;19923;-58
2022/12/22 12:49:32;;;;;;;;;;;;;;;8.43;80.72;99976.00;5067430;28;19924;-62
2022/12/22 12:51:57;;;;;;;;;;;;;;;8.45;80.78;99974.13;5072622;28;19917;-61
2022/12/22 12:54:29;;;;;;;;;;;;;;;8.42;80.63;99969.06;5068366;28;19940;-60
2022/12/22 12:56:57;;;;;;;;;;;;;;;8.41;80.63;99972.63;5059384;28;19921;-62
2022/12/22 12:59:41;;;;;;;;;;;;;;;8.39;80.71;99975.34;5067901;28;20022;-58
2022/12/22 13:02:25;;;;;;;;;;;;;;;8.39;80.71;99970.09;5066191;28;19916;-58
2022/12/22 13:04:59;;;;;;;;;;;;;;;8.38;80.74;99971.03;5062283;28;19924;-61
2022/12/22 13:08:04;;;;;;;;;;;;;;;8.37;80.96;99960.66;5041795;28;19956;-61
2022/12/22 13:10:29;;;;;;;;;;;;;;;8.40;80.92;99965.69;4944033;28;19933;-61
2022/12/22 13:12:56;;;;;;;;;;;;;;;8.41;80.94;99956.06;4963962;28;19918;-62
2022/12/22 13:15:25;;;;;;;;;;;;;;;8.41;80.79;99951.66;5007953;28;19928;-60
2022/12/22 13:17:59;;;;;;;;;;;;;;;8.42;80.95;99955.94;5069991;28;19938;-59
2022/12/22 13:20:28;;;;;;;;;;;;;;;8.41;80.87;99949.03;5071132;28;20419;-59
2022/12/22 13:22:54;;;;;;;;;;;;;;;8.42;80.81;99952.50;5051734;28;19916;-59
2022/12/22 13:25:39;;;;;;;;;;;;;;;8.41;80.84;99962.13;5065140;28;19943;-61
2022/12/22 13:28:05;;;;;;;;;;;;;;;8.39;80.72;99958.78;5072785;28;19916;-60
2022/12/22 13:30:30;;;;;;;;;;;;;;;8.39;80.82;99969.28;5064485;28;19924;-61
2022/12/22 13:32:57;;;;;;;;;;;;;;;8.38;80.82;99968.41;5073580;28;19959;-59
2022/12/22 13:35:29;;;;;;;;;;;;;;;8.39;80.87;99974.53;5065657;28;20649;-60
2022/12/22 13:37:56;;;;;;;;;;;;;;;8.38;80.83;99972.84;5065161;28;19936;-60
2022/12/22 13:40:29;;;;;;;;;;;;;;;8.36;80.82;99979.94;5034262;28;19916;-59
2022/12/22 13:42:55;;;;;;;;;;;;;;;8.35;80.83;99962.53;5070964;28;20365;-62
2022/12/22 13:45:32;;;;;;;;;;;;;;;8.34;81.05;99966.09;5061849;28;20410;-59
2022/12/22 13:47:59;;;;;;;;;;;;;;;8.37;80.98;99971.16;5065853;28;20050;-58
2022/12/22 13:50:31;;;;;;;;;;;;;;;8.37;80.93;99971.16;5067090;28;19925;-60
2022/12/22 13:53:01;;;;;;;;;;;;;;;8.38;80.79;99967.59;5063992;28;19916;-62
2022/12/22 13:55:28;;;;;;;;;;;;;;;8.37;81.03;99966.72;5068369;28;19932;-62
2022/12/22 13:57:55;;;;;;;;;;;;;;;8.39;80.76;99969.28;5047489;28;19920;-60
2022/12/22 14:00:29;;;;;;;;;;;;;;;8.39;80.87;99977.13;5048240;28;19955;-59
2022/12/22 14:02:55;;;;;;;;;;;;;;;8.36;80.82;99979.94;5061935;28;19960;-62
2022/12/22 14:05:20;;;;;;;;;;;;;;;8.35;81.03;99983.50;5069844;28;19948;-58
2022/12/22 14:07:59;;;;;;;;;;;;;;;8.36;80.87;99985.19;5067428;28;19924;-61
2022/12/22 14:10:39;;;;;;;;;;;;;;;8.34;81.07;99992.28;5070593;28;19927;-60
2022/12/22 14:13:06;;;;;;;;;;;;;;;8.33;81.25;100006.34;5056449;28;20402;-62
2022/12/22 14:15:34;;;;;;;;;;;;;;;8.35;81.32;100013.16;5065773;28;19920;-61
2022/12/22 14:18:03;;;;;;;;;;;;;;;8.33;81.43;100016.81;5066808;28;19948;-61
2022/12/22 14:20:34;;;;;;;;;;;;;;;8.31;81.54;100016.06;5046594;28;19920;-62
2022/12/22 14:23:06;;;;;;;;;;;;;;;8.36;81.34;100024.50;5074901;28;19916;-64
2022/12/22 14:25:33;;;;;;;;;;;;;;;8.36;81.47;100029.75;5049776;28;19948;-62
2022/12/22 14:27:59;;;;;;;;;;;;;;;8.32;81.58;100028.25;5046644;28;19927;-60
2022/12/22 14:30:30;;;;;;;;;;;;;;;8.33;81.49;100032.53;5048325;28;19920;-59
2022/12/22 14:32:56;;;;;;;;;;;;;;;8.34;81.49;100039.47;5064801;28;19916;-60
2022/12/22 14:35:21;;;;;;;;;;;;;;;8.32;81.75;100042.16;5064183;28;19981;-60
2022/12/22 14:38:05;;;;;;;;;;;;;;;8.34;81.85;100042.94;5068680;28;19912;-59
2022/12/22 14:40:30;;;;;;;;;;;;;;;8.29;81.50;100044.13;5063423;28;20444;-61
2022/12/22 14:42:57;;;;;;;;;;;;;;;8.24;81.75;100042.63;5061917;28;19916;-61
2022/12/22 14:45:22;;;;;;;;;;;;;;;8.28;81.51;100045.94;5062651;28;19940;-61
2022/12/22 14:47:48;;;;;;;;;;;;;;;8.32;81.37;100041.34;5068864;28;19935;-62
2022/12/22 14:50:28;;;;;;;;;;;;;;;8.31;81.33;100035.28;5063114;28;20011;-61
2022/12/22 14:52:57;;;;;;;;;;;;;;;8.35;81.22;100041.16;5062445;28;19916;-57
2022/12/22 14:55:24;;;;;;;;;;;;;;;8.38;80.81;100038.38;5063189;28;19925;-60
2022/12/22 14:57:53;;;;;;;;;;;;;;;8.38;80.89;100041.00;5060746;28;19920;-59
2022/12/22 15:00:21;;;;;;;;;;;;;;;8.39;80.68;100045.31;5066037;28;19999;-60
2022/12/22 15:02:52;;;;;;;;;;;;;;;8.36;80.73;100043.69;5063631;28;19916;-58
2022/12/22 15:05:37;;;;;;;;;;;;;;;8.35;80.68;100042.00;5062031;28;20387;-59
2022/12/22 15:08:05;;;;;;;;;;;;;;;8.32;80.97;100044.78;5059150;28;19925;-60
2022/12/22 15:10:37;;;;;;;;;;;;;;;8.30;81.11;100058.94;5058356;28;19970;-58
2022/12/22 15:13:04;;;;;;;;;;;;;;;8.27;81.20;100061.72;5043017;28;19948;-59
2022/12/22 15:15:31;;;;;;;;;;;;;;;8.23;81.31;100067.19;5058810;28;19928;-58
2022/12/22 15:17:57;;;;;;;;;;;;;;;8.26;81.05;100074.00;5065172;28;20398;-57
2022/12/22 15:20:24;;;;;;;;;;;;;;;8.21;81.09;100061.19;5046984;28;19921;-58
2022/12/22 15:22:49;;;;;;;;;;;;;;;8.21;81.17;100061.19;5069041;28;19920;-59
2022/12/22 15:25:16;;;;;;;;;;;;;;;8.19;81.18;100073.53;5065181;28;19920;-58
2022/12/22 15:27:42;;;;;;;;;;;;;;;8.19;81.44;100072.66;5072413;28;19968;-62
2022/12/22 15:30:08;;;;;;;;;;;;;;;8.17;81.31;100064.91;5058536;28;19952;-62
2022/12/22 15:32:33;;;;;;;;;;;;;;;8.18;81.37;100074.47;5060639;28;19920;-59
2022/12/22 15:35:01;;;;;;;;;;;;;;;8.19;81.28;100076.16;5055654;28;20488;-58
2022/12/22 15:37:26;;;;;;;;;;;;;;;8.16;81.26;100073.69;5052517;28;20454;-60
2022/12/22 15:39:52;;;;;;;;;;;;;;;8.15;81.25;100086.91;5055133;28;20024;-59
2022/12/22 15:42:17;;;;;;;;;;;;;;;8.14;81.47;100086.03;5063726;28;19948;-58
2022/12/22 15:44:42;;;;;;;;;;;;;;;8.12;81.46;100076.59;5056676;28;20383;-60
2022/12/22 15:47:09;;;;;;;;;;;;;;;8.09;81.25;100069.75;5058650;28;20318;-59
2022/12/22 15:49:34;;;;;;;;;;;;;;;8.08;81.46;100070.69;5052340;28;19943;-61
2022/12/22 15:52:01;;;;;;;;;;;;;;;8.04;81.41;100058.69;5042276;28;19924;-60
2022/12/22 15:54:27;;;;;;;;;;;;;;;8.03;81.60;100060.47;5062962;28;20445;-60
2022/12/22 15:56:53;;;;;;;;;;;;;;;8.02;81.43;100071.03;5056055;28;19928;-58
2022/12/22 15:59:21;;;;;;;;;;;;;;;8.03;81.50;100072.72;5059426;28;19925;-60
2022/12/22 16:01:46;;;;;;;;;;;;;;;8.02;81.29;100081.50;5059129;28;19967;-58
2022/12/22 16:04:11;;;;;;;;;;;;;;;8.02;81.45;100094.63;5061022;28;19966;-63
2022/12/22 16:06:37;;;;;;;;;;;;;;;8.03;81.38;100096.31;5053652;28;19927;-62
2022/12/22 16:09:05;;;;;;;;;;;;;;;8.02;81.57;100107.72;5063566;28;20399;-58
2022/12/22 16:11:30;;;;;;;;;;;;;;;8.00;81.64;100120.91;5068147;28;19921;-61
2022/12/22 16:13:56;;;;;;;;;;;;;;;8.04;81.82;100108.47;5059527;28;19940;-58
2022/12/22 16:16:21;;;;;;;;;;;;;;;8.08;81.65;100117.88;5064266;28;19932;-58
2022/12/22 16:18:46;;;;;;;;;;;;;;;8.07;81.73;100121.41;5061277;28;19959;-60
2022/12/22 16:21:14;;;;;;;;;;;;;;;8.05;82.02;100108.38;5062044;28;19924;-60
2022/12/22 16:23:40;;;;;;;;;;;;;;;8.09;81.81;100107.28;5047703;28;19920;-58
2022/12/22 16:26:05;;;;;;;;;;;;;;;8.10;81.83;100115.97;5063225;28;19927;-60
2022/12/22 16:28:31;;;;;;;;;;;;;;;8.16;81.87;100114.81;5063427;28;19929;-61
2022/12/22 16:30:58;;;;;;;;;;;;;;;8.16;81.95;100120.88;5062380;28;19942;-58
2022/12/22 16:33:23;;;;;;;;;;;;;;;8.12;82.64;100118.53;5068481;28;19923;-59